sensor_id;sensor_type;location;lat;lon;timestamp;temperature;humidity
39677;DHT22;27789;50.840;4.386;2023-04-19T00:01:48;11.20;99.90
39677;DHT22;27789;50.840;4.386;2023-04-19T00:04:13;11.10;99.90
39677;DHT22;27789;50.840;4.386;2023-04-19T00:06:39;11.10;99.90
39677;DHT22;27789;50.840;4.386;2023-04-19T00:09:06;11.10;99.90
39677;DHT22;27789;50.840;4.386;2023-04-19T00:11:32;11.10;99.90
39677;DHT22;27789;50.840;4.386;2023-04-19T00:13:57;11.10;99.90
39677;DHT22;27789;50.840;4.386;2023-04-19T00:16:23;11.10;99.90
39677;DHT22;27789;50.840;4.386;2023-04-19T00:18:48;11.10;99.90
39677;DHT22;27789;50.840;4.386;2023-04-19T00:21:14;11.10;99.90
39677;DHT22;27789;50.840;4.386;2023-04-19T00:23:39;11.00;99.90
39677;DHT22;27789;50.840;4.386;2023-04-19T00:26:05;11.00;99.90
39677;DHT22;27789;50.840;4.386;2023-04-19T00:28:32;11.00;99.90
39677;DHT22;27789;50.840;4.386;2023-04-19T00:30:57;11.00;99.90
39677;DHT22;27789;50.840;4.386;2023-04-19T00:33:23;11.00;99.90
39677;DHT22;27789;50.840;4.386;2023-04-19T00:35:48;11.00;99.90
39677;DHT22;27789;50.840;4.386;2023-04-19T00:38:14;11.00;99.90
39677;DHT22;27789;50.840;4.386;2023-04-19T00:40:39;11.00;99.90
39677;DHT22;27789;50.840;4.386;2023-04-19T00:43:05;10.90;99.90
39677;DHT22;27789;50.840;4.386;2023-04-19T00:45:31;10.90;99.90
39677;DHT22;27789;50.840;4.386;2023-04-19T00:47:57;10.90;99.90
39677;DHT22;27789;50.840;4.386;2023-04-19T00:50:22;10.90;99.90
39677;DHT22;27789;50.840;4.386;2023-04-19T00:52:48;10.90;99.90
39677;DHT22;27789;50.840;4.386;2023-04-19T00:55:13;10.90;99.90
39677;DHT22;27789;50.840;4.386;2023-04-19T00:57:39;10.80;99.90
39677;DHT22;27789;50.840;4.386;2023-04-19T01:00:05;10.80;99.90
39677;DHT22;27789;50.840;4.386;2023-04-19T01:02:32;10.80;99.90
39677;DHT22;27789;50.840;4.386;2023-04-19T01:04:57;10.80;99.90
39677;DHT22;27789;50.840;4.386;2023-04-19T01:07:23;10.80;99.90
39677;DHT22;27789;50.840;4.386;2023-04-19T01:09:48;10.80;99.90
39677;DHT22;27789;50.840;4.386;2023-04-19T01:12:14;10.70;99.90
39677;DHT22;27789;50.840;4.386;2023-04-19T01:14:40;10.70;99.90
39677;DHT22;27789;50.840;4.386;2023-04-19T01:17:06;10.70;99.90
39677;DHT22;27789;50.840;4.386;2023-04-19T01:19:32;10.70;99.90
39677;DHT22;27789;50.840;4.386;2023-04-19T01:21:59;10.60;99.90
39677;DHT22;27789;50.840;4.386;2023-04-19T01:24:24;10.60;99.90
39677;DHT22;27789;50.840;4.386;2023-04-19T01:26:50;10.60;99.90
39677;DHT22;27789;50.840;4.386;2023-04-19T01:29:15;10.50;99.90
39677;DHT22;27789;50.840;4.386;2023-04-19T01:31:42;10.50;99.90
39677;DHT22;27789;50.840;4.386;2023-04-19T01:34:13;10.50;99.90
39677;DHT22;27789;50.840;4.386;2023-04-19T01:36:38;10.50;99.90
39677;DHT22;27789;50.840;4.386;2023-04-19T01:39:04;10.50;99.90
39677;DHT22;27789;50.840;4.386;2023-04-19T01:41:29;10.50;99.90
39677;DHT22;27789;50.840;4.386;2023-04-19T01:43:56;10.40;99.90
39677;DHT22;27789;50.840;4.386;2023-04-19T01:46:21;10.40;99.90
39677;DHT22;27789;50.840;4.386;2023-04-19T01:48:47;10.40;99.90
39677;DHT22;27789;50.840;4.386;2023-04-19T01:51:12;10.40;99.90
39677;DHT22;27789;50.840;4.386;2023-04-19T01:53:37;10.40;99.90
39677;DHT22;27789;50.840;4.386;2023-04-19T01:56:03;10.40;99.90
39677;DHT22;27789;50.840;4.386;2023-04-19T01:58:29;10.40;99.90
39677;DHT22;27789;50.840;4.386;2023-04-19T02:00:54;10.50;99.90
39677;DHT22;27789;50.840;4.386;2023-04-19T02:03:19;10.50;99.90
39677;DHT22;27789;50.840;4.386;2023-04-19T02:05:45;10.60;99.90
39677;DHT22;27789;50.840;4.386;2023-04-19T02:08:11;10.60;99.90
39677;DHT22;27789;50.840;4.386;2023-04-19T02:10:36;10.60;99.90
39677;DHT22;27789;50.840;4.386;2023-04-19T02:13:02;10.60;99.90
39677;DHT22;27789;50.840;4.386;2023-04-19T02:15:27;10.70;99.90
39677;DHT22;27789;50.840;4.386;2023-04-19T02:17:53;10.70;99.90
39677;DHT22;27789;50.840;4.386;2023-04-19T02:20:18;10.80;99.90
39677;DHT22;27789;50.840;4.386;2023-04-19T02:22:44;10.80;99.90
39677;DHT22;27789;50.840;4.386;2023-04-19T02:25:13;10.80;99.90
39677;DHT22;27789;50.840;4.386;2023-04-19T02:27:39;11.60;99.90
39677;DHT22;27789;50.840;4.386;2023-04-19T02:30:05;10.90;99.90
39677;DHT22;27789;50.840;4.386;2023-04-19T02:32:31;10.90;99.90
39677;DHT22;27789;50.840;4.386;2023-04-19T02:34:56;10.90;99.90
39677;DHT22;27789;50.840;4.386;2023-04-19T02:37:22;10.90;99.90
39677;DHT22;27789;50.840;4.386;2023-04-19T02:39:47;10.90;99.90
39677;DHT22;27789;50.840;4.386;2023-04-19T02:42:13;11.00;99.90
39677;DHT22;27789;50.840;4.386;2023-04-19T02:44:38;11.00;99.90
39677;DHT22;27789;50.840;4.386;2023-04-19T02:47:04;11.00;99.90
39677;DHT22;27789;50.840;4.386;2023-04-19T02:49:29;11.00;99.90
39677;DHT22;27789;50.840;4.386;2023-04-19T02:51:58;11.00;99.90
39677;DHT22;27789;50.840;4.386;2023-04-19T02:54:24;11.10;99.90
39677;DHT22;27789;50.840;4.386;2023-04-19T02:56:49;11.10;99.90
39677;DHT22;27789;50.840;4.386;2023-04-19T02:59:15;11.10;99.90
39677;DHT22;27789;50.840;4.386;2023-04-19T03:01:40;11.10;99.90
39677;DHT22;27789;50.840;4.386;2023-04-19T03:04:06;11.20;99.90
39677;DHT22;27789;50.840;4.386;2023-04-19T03:06:31;11.20;99.90
39677;DHT22;27789;50.840;4.386;2023-04-19T03:08:57;11.20;99.90
39677;DHT22;27789;50.840;4.386;2023-04-19T03:11:22;11.20;99.90
39677;DHT22;27789;50.840;4.386;2023-04-19T03:13:48;11.20;99.90
39677;DHT22;27789;50.840;4.386;2023-04-19T03:16:13;11.30;99.90
39677;DHT22;27789;50.840;4.386;2023-04-19T03:18:40;11.30;99.90
39677;DHT22;27789;50.840;4.386;2023-04-19T03:21:06;11.30;99.90
39677;DHT22;27789;50.840;4.386;2023-04-19T03:23:33;11.30;99.90
39677;DHT22;27789;50.840;4.386;2023-04-19T03:26:01;11.40;99.90
39677;DHT22;27789;50.840;4.386;2023-04-19T03:28:26;11.40;99.90
39677;DHT22;27789;50.840;4.386;2023-04-19T03:30:52;11.30;99.90
39677;DHT22;27789;50.840;4.386;2023-04-19T03:33:17;11.30;99.90
39677;DHT22;27789;50.840;4.386;2023-04-19T03:35:43;11.30;99.90
39677;DHT22;27789;50.840;4.386;2023-04-19T03:38:09;11.30;99.90
39677;DHT22;27789;50.840;4.386;2023-04-19T03:40:37;11.20;99.90
39677;DHT22;27789;50.840;4.386;2023-04-19T03:43:03;11.10;99.90
39677;DHT22;27789;50.840;4.386;2023-04-19T03:45:29;11.10;99.90
39677;DHT22;27789;50.840;4.386;2023-04-19T03:47:54;11.00;99.90
39677;DHT22;27789;50.840;4.386;2023-04-19T03:50:20;11.00;99.90
39677;DHT22;27789;50.840;4.386;2023-04-19T03:52:45;11.00;99.90
39677;DHT22;27789;50.840;4.386;2023-04-19T03:55:10;10.90;99.90
39677;DHT22;27789;50.840;4.386;2023-04-19T03:57:39;10.90;99.90
39677;DHT22;27789;50.840;4.386;2023-04-19T04:00:05;10.90;99.90
39677;DHT22;27789;50.840;4.386;2023-04-19T04:02:37;10.80;99.90
39677;DHT22;27789;50.840;4.386;2023-04-19T04:05:03;10.80;99.90
39677;DHT22;27789;50.840;4.386;2023-04-19T04:07:29;10.80;99.90
39677;DHT22;27789;50.840;4.386;2023-04-19T04:09:54;12.00;99.90
39677;DHT22;27789;50.840;4.386;2023-04-19T04:12:20;10.80;99.90
39677;DHT22;27789;50.840;4.386;2023-04-19T04:14:45;10.70;99.90
39677;DHT22;27789;50.840;4.386;2023-04-19T04:17:10;10.70;99.90
39677;DHT22;27789;50.840;4.386;2023-04-19T04:19:36;10.70;99.90
39677;DHT22;27789;50.840;4.386;2023-04-19T04:22:02;10.70;99.90
39677;DHT22;27789;50.840;4.386;2023-04-19T04:24:27;10.70;99.90
39677;DHT22;27789;50.840;4.386;2023-04-19T04:26:55;10.70;99.90
39677;DHT22;27789;50.840;4.386;2023-04-19T04:29:22;10.60;99.90
39677;DHT22;27789;50.840;4.386;2023-04-19T04:31:47;10.70;99.90
39677;DHT22;27789;50.840;4.386;2023-04-19T04:34:13;10.70;99.90
39677;DHT22;27789;50.840;4.386;2023-04-19T04:36:38;10.70;99.90
39677;DHT22;27789;50.840;4.386;2023-04-19T04:39:04;10.60;99.90
39677;DHT22;27789;50.840;4.386;2023-04-19T04:41:30;10.70;99.90
39677;DHT22;27789;50.840;4.386;2023-04-19T04:43:59;10.70;99.90
39677;DHT22;27789;50.840;4.386;2023-04-19T04:46:25;10.70;99.90
39677;DHT22;27789;50.840;4.386;2023-04-19T04:48:51;10.60;99.90
39677;DHT22;27789;50.840;4.386;2023-04-19T04:51:17;10.60;99.90
39677;DHT22;27789;50.840;4.386;2023-04-19T04:53:42;10.70;99.90
39677;DHT22;27789;50.840;4.386;2023-04-19T04:56:07;10.70;99.90
39677;DHT22;27789;50.840;4.386;2023-04-19T04:58:33;10.60;99.90
39677;DHT22;27789;50.840;4.386;2023-04-19T05:00:59;10.60;99.90
39677;DHT22;27789;50.840;4.386;2023-04-19T05:03:25;10.60;99.90
39677;DHT22;27789;50.840;4.386;2023-04-19T05:05:51;10.60;99.90
39677;DHT22;27789;50.840;4.386;2023-04-19T05:08:17;10.60;99.90
39677;DHT22;27789;50.840;4.386;2023-04-19T05:10:43;10.60;99.90
39677;DHT22;27789;50.840;4.386;2023-04-19T05:13:08;10.60;99.90
39677;DHT22;27789;50.840;4.386;2023-04-19T05:15:34;10.60;99.90
39677;DHT22;27789;50.840;4.386;2023-04-19T05:18:00;10.60;99.90
39677;DHT22;27789;50.840;4.386;2023-04-19T05:20:25;10.60;99.90
39677;DHT22;27789;50.840;4.386;2023-04-19T05:22:55;10.70;99.90
39677;DHT22;27789;50.840;4.386;2023-04-19T05:25:21;10.70;99.90
39677;DHT22;27789;50.840;4.386;2023-04-19T05:27:46;10.60;99.90
39677;DHT22;27789;50.840;4.386;2023-04-19T05:30:12;10.70;99.90
39677;DHT22;27789;50.840;4.386;2023-04-19T05:32:37;10.70;99.90
39677;DHT22;27789;50.840;4.386;2023-04-19T05:35:03;10.70;99.90
39677;DHT22;27789;50.840;4.386;2023-04-19T05:37:28;10.70;99.90
39677;DHT22;27789;50.840;4.386;2023-04-19T05:39:54;10.70;99.90
39677;DHT22;27789;50.840;4.386;2023-04-19T05:42:20;10.70;99.90
39677;DHT22;27789;50.840;4.386;2023-04-19T05:44:45;10.70;99.90
39677;DHT22;27789;50.840;4.386;2023-04-19T05:47:11;10.80;99.90
39677;DHT22;27789;50.840;4.386;2023-04-19T05:49:36;10.80;99.90
39677;DHT22;27789;50.840;4.386;2023-04-19T05:52:02;10.80;99.90
39677;DHT22;27789;50.840;4.386;2023-04-19T05:54:27;10.80;99.90
39677;DHT22;27789;50.840;4.386;2023-04-19T05:56:58;10.90;99.90
39677;DHT22;27789;50.840;4.386;2023-04-19T05:59:24;10.90;99.90
39677;DHT22;27789;50.840;4.386;2023-04-19T06:01:49;10.90;99.90
39677;DHT22;27789;50.840;4.386;2023-04-19T06:04:15;10.90;99.90
39677;DHT22;27789;50.840;4.386;2023-04-19T06:06:40;11.00;99.90
39677;DHT22;27789;50.840;4.386;2023-04-19T06:09:06;11.00;99.90
39677;DHT22;27789;50.840;4.386;2023-04-19T06:11:31;11.00;99.90
39677;DHT22;27789;50.840;4.386;2023-04-19T06:13:57;11.10;99.90
39677;DHT22;27789;50.840;4.386;2023-04-19T06:16:22;11.00;99.90
39677;DHT22;27789;50.840;4.386;2023-04-19T06:18:48;10.90;99.90
39677;DHT22;27789;50.840;4.386;2023-04-19T06:21:13;11.10;99.90
39677;DHT22;27789;50.840;4.386;2023-04-19T06:23:39;11.10;99.90
39677;DHT22;27789;50.840;4.386;2023-04-19T06:26:05;11.10;99.90
39677;DHT22;27789;50.840;4.386;2023-04-19T06:28:30;11.20;99.90
39677;DHT22;27789;50.840;4.386;2023-04-19T06:30:56;11.20;99.90
39677;DHT22;27789;50.840;4.386;2023-04-19T06:33:21;11.30;99.90
39677;DHT22;27789;50.840;4.386;2023-04-19T06:35:46;11.50;99.90
39677;DHT22;27789;50.840;4.386;2023-04-19T06:38:12;11.50;99.90
39677;DHT22;27789;50.840;4.386;2023-04-19T06:40:37;11.60;99.90
39677;DHT22;27789;50.840;4.386;2023-04-19T06:43:03;11.60;99.90
39677;DHT22;27789;50.840;4.386;2023-04-19T06:45:28;11.70;99.90
39677;DHT22;27789;50.840;4.386;2023-04-19T06:47:54;11.70;99.90
39677;DHT22;27789;50.840;4.386;2023-04-19T06:50:19;11.70;99.90
39677;DHT22;27789;50.840;4.386;2023-04-19T06:52:45;11.90;99.90
39677;DHT22;27789;50.840;4.386;2023-04-19T06:55:11;12.00;99.90
39677;DHT22;27789;50.840;4.386;2023-04-19T06:57:36;12.00;99.90
39677;DHT22;27789;50.840;4.386;2023-04-19T07:00:02;12.10;99.90
39677;DHT22;27789;50.840;4.386;2023-04-19T07:02:30;12.10;99.90
39677;DHT22;27789;50.840;4.386;2023-04-19T07:04:55;12.20;99.90
39677;DHT22;27789;50.840;4.386;2023-04-19T07:07:21;12.30;99.90
39677;DHT22;27789;50.840;4.386;2023-04-19T07:09:46;12.40;99.90
39677;DHT22;27789;50.840;4.386;2023-04-19T07:12:12;12.50;99.90
39677;DHT22;27789;50.840;4.386;2023-04-19T07:14:37;12.70;99.90
39677;DHT22;27789;50.840;4.386;2023-04-19T07:17:03;12.70;99.90
39677;DHT22;27789;50.840;4.386;2023-04-19T07:19:30;12.80;99.90
39677;DHT22;27789;50.840;4.386;2023-04-19T07:21:55;12.80;99.90
39677;DHT22;27789;50.840;4.386;2023-04-19T07:24:21;12.80;99.90
39677;DHT22;27789;50.840;4.386;2023-04-19T07:26:46;12.80;99.90
39677;DHT22;27789;50.840;4.386;2023-04-19T07:29:12;12.80;99.90
39677;DHT22;27789;50.840;4.386;2023-04-19T07:31:37;12.80;99.90
39677;DHT22;27789;50.840;4.386;2023-04-19T07:34:03;12.80;99.90
39677;DHT22;27789;50.840;4.386;2023-04-19T07:36:28;12.80;99.90
39677;DHT22;27789;50.840;4.386;2023-04-19T07:38:56;12.90;99.90
39677;DHT22;27789;50.840;4.386;2023-04-19T07:41:22;13.10;99.90
39677;DHT22;27789;50.840;4.386;2023-04-19T07:43:47;13.10;99.90
39677;DHT22;27789;50.840;4.386;2023-04-19T07:46:13;13.20;99.90
39677;DHT22;27789;50.840;4.386;2023-04-19T07:48:41;13.30;99.90
39677;DHT22;27789;50.840;4.386;2023-04-19T07:51:10;13.30;99.90
39677;DHT22;27789;50.840;4.386;2023-04-19T07:53:37;13.40;99.90
39677;DHT22;27789;50.840;4.386;2023-04-19T07:56:03;13.40;99.90
39677;DHT22;27789;50.840;4.386;2023-04-19T07:58:28;13.50;99.90
39677;DHT22;27789;50.840;4.386;2023-04-19T08:00:54;13.60;99.90
39677;DHT22;27789;50.840;4.386;2023-04-19T08:03:19;13.60;99.90
39677;DHT22;27789;50.840;4.386;2023-04-19T08:05:46;13.60;99.90
39677;DHT22;27789;50.840;4.386;2023-04-19T08:08:11;13.60;99.90
39677;DHT22;27789;50.840;4.386;2023-04-19T08:10:37;13.60;99.90
39677;DHT22;27789;50.840;4.386;2023-04-19T08:13:03;13.70;99.90
39677;DHT22;27789;50.840;4.386;2023-04-19T08:15:34;13.70;99.90
39677;DHT22;27789;50.840;4.386;2023-04-19T08:18:00;13.80;99.90
39677;DHT22;27789;50.840;4.386;2023-04-19T08:20:25;13.90;99.90
39677;DHT22;27789;50.840;4.386;2023-04-19T08:22:52;13.90;99.90
39677;DHT22;27789;50.840;4.386;2023-04-19T08:25:18;14.10;99.90
39677;DHT22;27789;50.840;4.386;2023-04-19T08:27:44;14.10;99.90
39677;DHT22;27789;50.840;4.386;2023-04-19T08:30:09;14.20;99.90
39677;DHT22;27789;50.840;4.386;2023-04-19T08:32:35;14.40;99.90
39677;DHT22;27789;50.840;4.386;2023-04-19T08:35:01;14.50;99.90
39677;DHT22;27789;50.840;4.386;2023-04-19T08:37:29;14.60;99.90
39677;DHT22;27789;50.840;4.386;2023-04-19T08:39:55;14.80;99.90
39677;DHT22;27789;50.840;4.386;2023-04-19T08:42:20;15.00;99.90
39677;DHT22;27789;50.840;4.386;2023-04-19T08:44:46;15.10;99.90
39677;DHT22;27789;50.840;4.386;2023-04-19T08:47:12;15.20;99.90
39677;DHT22;27789;50.840;4.386;2023-04-19T08:49:40;15.30;99.90
39677;DHT22;27789;50.840;4.386;2023-04-19T08:52:06;15.40;99.90
39677;DHT22;27789;50.840;4.386;2023-04-19T08:54:34;15.40;99.90
39677;DHT22;27789;50.840;4.386;2023-04-19T08:56:59;15.40;99.90
39677;DHT22;27789;50.840;4.386;2023-04-19T08:59:26;15.40;99.90
39677;DHT22;27789;50.840;4.386;2023-04-19T09:01:53;15.50;99.90
39677;DHT22;27789;50.840;4.386;2023-04-19T09:04:19;15.50;99.90
39677;DHT22;27789;50.840;4.386;2023-04-19T09:06:45;15.60;99.90
39677;DHT22;27789;50.840;4.386;2023-04-19T09:11:42;15.60;99.90
39677;DHT22;27789;50.840;4.386;2023-04-19T09:14:12;15.70;99.90
39677;DHT22;27789;50.840;4.386;2023-04-19T09:16:38;15.70;99.90
39677;DHT22;27789;50.840;4.386;2023-04-19T09:19:04;15.60;99.90
39677;DHT22;27789;50.840;4.386;2023-04-19T09:21:30;15.70;99.90
39677;DHT22;27789;50.840;4.386;2023-04-19T09:23:56;15.80;99.90
39677;DHT22;27789;50.840;4.386;2023-04-19T09:26:22;15.90;99.90
39677;DHT22;27789;50.840;4.386;2023-04-19T09:28:57;16.10;99.90
39677;DHT22;27789;50.840;4.386;2023-04-19T09:31:23;16.20;99.90
39677;DHT22;27789;50.840;4.386;2023-04-19T09:33:53;16.20;99.90
39677;DHT22;27789;50.840;4.386;2023-04-19T09:38:56;16.40;99.90
39677;DHT22;27789;50.840;4.386;2023-04-19T09:41:22;16.60;99.90
39677;DHT22;27789;50.840;4.386;2023-04-19T09:43:47;16.60;99.90
39677;DHT22;27789;50.840;4.386;2023-04-19T09:46:55;16.60;99.90
39677;DHT22;27789;50.840;4.386;2023-04-19T09:51:39;16.90;99.90
39677;DHT22;27789;50.840;4.386;2023-04-19T09:54:04;16.90;99.90
39677;DHT22;27789;50.840;4.386;2023-04-19T09:56:30;17.00;99.90
39677;DHT22;27789;50.840;4.386;2023-04-19T09:58:55;17.00;99.90
39677;DHT22;27789;50.840;4.386;2023-04-19T10:01:21;17.10;99.90
39677;DHT22;27789;50.840;4.386;2023-04-19T10:03:47;17.00;99.90
39677;DHT22;27789;50.840;4.386;2023-04-19T10:06:15;17.00;99.90
39677;DHT22;27789;50.840;4.386;2023-04-19T10:08:41;17.00;99.90
39677;DHT22;27789;50.840;4.386;2023-04-19T10:11:08;17.30;99.90
39677;DHT22;27789;50.840;4.386;2023-04-19T10:13:34;17.40;99.90
39677;DHT22;27789;50.840;4.386;2023-04-19T10:16:01;17.30;99.90
39677;DHT22;27789;50.840;4.386;2023-04-19T10:18:28;17.40;99.90
39677;DHT22;27789;50.840;4.386;2023-04-19T10:20:58;17.60;99.90
39677;DHT22;27789;50.840;4.386;2023-04-19T10:23:25;17.70;99.90
39677;DHT22;27789;50.840;4.386;2023-04-19T10:25:55;17.70;99.90
39677;DHT22;27789;50.840;4.386;2023-04-19T10:28:21;17.70;99.90
39677;DHT22;27789;50.840;4.386;2023-04-19T10:30:54;17.70;99.90
39677;DHT22;27789;50.840;4.386;2023-04-19T10:33:28;17.80;99.90
39677;DHT22;27789;50.840;4.386;2023-04-19T10:35:57;17.90;99.90
39677;DHT22;27789;50.840;4.386;2023-04-19T10:40:59;18.10;99.90
39677;DHT22;27789;50.840;4.386;2023-04-19T10:45:51;18.20;99.90
39677;DHT22;27789;50.840;4.386;2023-04-19T10:51:00;18.50;99.90
39677;DHT22;27789;50.840;4.386;2023-04-19T10:56:03;18.80;99.90
39677;DHT22;27789;50.840;4.386;2023-04-19T10:58:28;18.80;99.70
39677;DHT22;27789;50.840;4.386;2023-04-19T11:08:45;20.70;97.80
39677;DHT22;27789;50.840;4.386;2023-04-19T11:11:11;21.00;97.60
39677;DHT22;27789;50.840;4.386;2023-04-19T11:13:37;20.60;97.20
39677;DHT22;27789;50.840;4.386;2023-04-19T11:16:09;20.00;97.80
39677;DHT22;27789;50.840;4.386;2023-04-19T11:18:35;19.50;98.20
39677;DHT22;27789;50.840;4.386;2023-04-19T11:21:00;20.50;97.30
39677;DHT22;27789;50.840;4.386;2023-04-19T11:23:26;20.80;96.70
39677;DHT22;27789;50.840;4.386;2023-04-19T11:25:51;21.60;96.30
39677;DHT22;27789;50.840;4.386;2023-04-19T11:28:17;22.60;95.30
39677;DHT22;27789;50.840;4.386;2023-04-19T11:30:43;23.30;94.70
39677;DHT22;27789;50.840;4.386;2023-04-19T11:33:11;23.40;94.30
39677;DHT22;27789;50.840;4.386;2023-04-19T11:35:36;23.60;93.90
39677;DHT22;27789;50.840;4.386;2023-04-19T11:38:02;24.00;93.60
39677;DHT22;27789;50.840;4.386;2023-04-19T11:40:29;24.60;93.30
39677;DHT22;27789;50.840;4.386;2023-04-19T11:43:00;25.10;92.50
39677;DHT22;27789;50.840;4.386;2023-04-19T11:45:36;25.50;92.20
39677;DHT22;27789;50.840;4.386;2023-04-19T11:48:05;25.90;91.60
39677;DHT22;27789;50.840;4.386;2023-04-19T11:52:57;26.10;91.40
39677;DHT22;27789;50.840;4.386;2023-04-19T11:55:23;25.20;91.40
39677;DHT22;27789;50.840;4.386;2023-04-19T11:57:48;25.20;91.20
39677;DHT22;27789;50.840;4.386;2023-04-19T12:00:14;25.50;91.10
39677;DHT22;27789;50.840;4.386;2023-04-19T12:02:41;25.70;90.90
39677;DHT22;27789;50.840;4.386;2023-04-19T12:05:10;25.50;90.80
39677;DHT22;27789;50.840;4.386;2023-04-19T12:10:16;26.30;90.30
39677;DHT22;27789;50.840;4.386;2023-04-19T12:12:42;25.80;90.20
39677;DHT22;27789;50.840;4.386;2023-04-19T12:15:07;24.60;90.50
39677;DHT22;27789;50.840;4.386;2023-04-19T12:17:33;24.60;90.50
39677;DHT22;27789;50.840;4.386;2023-04-19T12:19:58;24.80;90.50
39677;DHT22;27789;50.840;4.386;2023-04-19T12:22:24;25.60;90.10
39677;DHT22;27789;50.840;4.386;2023-04-19T12:24:49;26.20;89.40
39677;DHT22;27789;50.840;4.386;2023-04-19T12:27:15;26.60;88.10
39677;DHT22;27789;50.840;4.386;2023-04-19T12:29:41;27.00;87.70
39677;DHT22;27789;50.840;4.386;2023-04-19T12:32:08;27.00;87.00
39677;DHT22;27789;50.840;4.386;2023-04-19T12:34:34;26.70;86.90
39677;DHT22;27789;50.840;4.386;2023-04-19T12:37:00;26.70;85.30
39677;DHT22;27789;50.840;4.386;2023-04-19T12:39:26;26.90;85.70
39677;DHT22;27789;50.840;4.386;2023-04-19T12:41:53;27.30;85.00
39677;DHT22;27789;50.840;4.386;2023-04-19T12:44:18;27.60;83.80
39677;DHT22;27789;50.840;4.386;2023-04-19T12:46:44;27.90;83.10
39677;DHT22;27789;50.840;4.386;2023-04-19T12:49:09;27.80;82.70
39677;DHT22;27789;50.840;4.386;2023-04-19T12:51:35;27.90;83.00
39677;DHT22;27789;50.840;4.386;2023-04-19T12:54:00;28.10;81.40
39677;DHT22;27789;50.840;4.386;2023-04-19T12:56:26;28.30;81.80
39677;DHT22;27789;50.840;4.386;2023-04-19T12:58:52;28.60;80.40
39677;DHT22;27789;50.840;4.386;2023-04-19T13:01:17;28.40;80.00
39677;DHT22;27789;50.840;4.386;2023-04-19T13:03:43;28.30;79.80
39677;DHT22;27789;50.840;4.386;2023-04-19T13:06:09;28.30;79.60
39677;DHT22;27789;50.840;4.386;2023-04-19T13:08:37;28.70;79.60
39677;DHT22;27789;50.840;4.386;2023-04-19T13:11:03;28.70;78.80
39677;DHT22;27789;50.840;4.386;2023-04-19T13:13:28;28.90;77.80
39677;DHT22;27789;50.840;4.386;2023-04-19T13:15:54;28.90;77.70
39677;DHT22;27789;50.840;4.386;2023-04-19T13:18:19;28.70;77.50
39677;DHT22;27789;50.840;4.386;2023-04-19T13:20:46;27.90;77.70
39677;DHT22;27789;50.840;4.386;2023-04-19T13:23:12;27.20;77.90
39677;DHT22;27789;50.840;4.386;2023-04-19T13:25:37;26.20;78.60
39677;DHT22;27789;50.840;4.386;2023-04-19T13:28:03;25.80;78.20
39677;DHT22;27789;50.840;4.386;2023-04-19T13:30:28;25.70;77.90
39677;DHT22;27789;50.840;4.386;2023-04-19T13:32:54;25.60;76.80
39677;DHT22;27789;50.840;4.386;2023-04-19T13:35:19;25.80;76.40
39677;DHT22;27789;50.840;4.386;2023-04-19T13:37:45;26.00;76.60
39677;DHT22;27789;50.840;4.386;2023-04-19T13:40:12;25.80;75.70
39677;DHT22;27789;50.840;4.386;2023-04-19T13:42:37;25.90;76.40
39677;DHT22;27789;50.840;4.386;2023-04-19T13:45:03;26.30;75.90
39677;DHT22;27789;50.840;4.386;2023-04-19T13:47:29;26.60;74.70
39677;DHT22;27789;50.840;4.386;2023-04-19T13:49:54;26.60;74.00
39677;DHT22;27789;50.840;4.386;2023-04-19T13:52:20;26.20;74.10
39677;DHT22;27789;50.840;4.386;2023-04-19T13:54:47;25.20;74.40
39677;DHT22;27789;50.840;4.386;2023-04-19T13:57:13;24.40;75.20
39677;DHT22;27789;50.840;4.386;2023-04-19T13:59:38;23.90;76.20
39677;DHT22;27789;50.840;4.386;2023-04-19T14:02:04;23.40;76.30
39677;DHT22;27789;50.840;4.386;2023-04-19T14:04:29;23.10;76.20
39677;DHT22;27789;50.840;4.386;2023-04-19T14:06:55;22.70;74.70
39677;DHT22;27789;50.840;4.386;2023-04-19T14:09:20;22.60;76.30
39677;DHT22;27789;50.840;4.386;2023-04-19T14:11:46;22.40;75.90
39677;DHT22;27789;50.840;4.386;2023-04-19T14:14:13;22.20;75.10
39677;DHT22;27789;50.840;4.386;2023-04-19T14:16:38;21.90;76.50
39677;DHT22;27789;50.840;4.386;2023-04-19T14:19:04;21.80;74.80
39677;DHT22;27789;50.840;4.386;2023-04-19T14:21:29;21.70;74.90
39677;DHT22;27789;50.840;4.386;2023-04-19T14:23:55;21.50;73.90
39677;DHT22;27789;50.840;4.386;2023-04-19T14:26:21;21.30;73.70
39677;DHT22;27789;50.840;4.386;2023-04-19T14:28:46;21.10;73.50
39677;DHT22;27789;50.840;4.386;2023-04-19T14:31:12;21.10;73.50
39677;DHT22;27789;50.840;4.386;2023-04-19T14:33:37;21.10;74.10
39677;DHT22;27789;50.840;4.386;2023-04-19T14:36:03;21.10;73.90
39677;DHT22;27789;50.840;4.386;2023-04-19T14:38:28;21.10;73.30
39677;DHT22;27789;50.840;4.386;2023-04-19T14:40:54;21.00;73.30
39677;DHT22;27789;50.840;4.386;2023-04-19T14:43:20;20.90;73.60
39677;DHT22;27789;50.840;4.386;2023-04-19T14:45:49;20.80;73.90
39677;DHT22;27789;50.840;4.386;2023-04-19T14:48:15;20.80;74.50
39677;DHT22;27789;50.840;4.386;2023-04-19T14:50:40;20.70;74.10
39677;DHT22;27789;50.840;4.386;2023-04-19T14:53:06;20.60;73.60
39677;DHT22;27789;50.840;4.386;2023-04-19T14:55:31;20.60;74.50
39677;DHT22;27789;50.840;4.386;2023-04-19T14:57:57;20.50;74.70
39677;DHT22;27789;50.840;4.386;2023-04-19T15:00:22;20.50;74.80
39677;DHT22;27789;50.840;4.386;2023-04-19T15:02:48;20.60;76.00
39677;DHT22;27789;50.840;4.386;2023-04-19T15:05:13;20.60;75.50
39677;DHT22;27789;50.840;4.386;2023-04-19T15:07:40;20.60;74.70
39677;DHT22;27789;50.840;4.386;2023-04-19T15:10:05;20.50;75.50
39677;DHT22;27789;50.840;4.386;2023-04-19T15:12:31;20.50;75.20
39677;DHT22;27789;50.840;4.386;2023-04-19T15:14:56;20.40;75.30
39677;DHT22;27789;50.840;4.386;2023-04-19T15:17:22;20.30;75.00
39677;DHT22;27789;50.840;4.386;2023-04-19T15:19:47;20.20;75.10
39677;DHT22;27789;50.840;4.386;2023-04-19T15:22:13;20.20;76.10
39677;DHT22;27789;50.840;4.386;2023-04-19T15:24:38;20.20;75.40
39677;DHT22;27789;50.840;4.386;2023-04-19T15:27:04;20.00;75.50
39677;DHT22;27789;50.840;4.386;2023-04-19T15:29:29;20.10;75.50
39677;DHT22;27789;50.840;4.386;2023-04-19T15:31:55;20.10;75.40
39677;DHT22;27789;50.840;4.386;2023-04-19T15:34:20;20.00;74.20
39677;DHT22;27789;50.840;4.386;2023-04-19T15:36:46;20.00;73.70
39677;DHT22;27789;50.840;4.386;2023-04-19T15:39:11;20.00;73.70
39677;DHT22;27789;50.840;4.386;2023-04-19T15:41:37;20.00;73.90
39677;DHT22;27789;50.840;4.386;2023-04-19T15:44:02;20.10;73.50
39677;DHT22;27789;50.840;4.386;2023-04-19T15:46:28;20.00;73.30
39677;DHT22;27789;50.840;4.386;2023-04-19T15:48:53;20.00;72.90
39677;DHT22;27789;50.840;4.386;2023-04-19T15:51:19;20.00;72.70
39677;DHT22;27789;50.840;4.386;2023-04-19T15:53:44;20.00;72.60